Time;durP1;ratioP1;P1;durP2;ratioP2;P2;SDS_P1;SDS_P2;PMS_P1;PMS_P2;Temp;Humidity;BMP_temperature;BMP_pressure;BME280_temperature;BME280_humidity;BME280_pressure;Samples;Min_cycle;Max_cycle;Signal;HPM_P1;HPM_P2
2021/08/09 00:01:22;;;;;;;1.60;1.30;;;;;;;;;;5056516;28;20017;-76
2021/08/09 00:03:48;;;;;;;1.90;1.70;;;;;;;;;;5056265;28;20029;-76
2021/08/09 00:06:17;;;;;;;2.30;1.50;;;;;;;;;;5055841;28;20049;-76
2021/08/09 00:08:43;;;;;;;1.67;1.45;;;;;;;;;;5055974;28;20048;-76
2021/08/09 00:11:09;;;;;;;2.83;1.90;;;;;;;;;;5056042;28;20029;-76
2021/08/09 00:13:35;;;;;;;2.65;2.17;;;;;;;;;;5056302;28;20364;-76
2021/08/09 00:16:01;;;;;;;2.55;1.60;;;;;;;;;;5056239;28;20387;-76
2021/08/09 00:18:27;;;;;;;5.10;2.22;;;;;;;;;;5055347;28;20044;-74
2021/08/09 00:20:54;;;;;;;3.45;1.73;;;;;;;;;;5056041;28;20107;-73
2021/08/09 00:23:20;;;;;;;1.40;1.27;;;;;;;;;;5056311;28;20029;-73
2021/08/09 00:25:46;;;;;;;3.03;1.80;;;;;;;;;;5055504;28;20017;-73
2021/08/09 00:28:12;;;;;;;2.20;1.48;;;;;;;;;;5055633;28;20462;-73
2021/08/09 00:30:38;;;;;;;3.03;1.73;;;;;;;;;;5055407;28;20487;-73
2021/08/09 00:33:04;;;;;;;1.85;1.45;;;;;;;;;;5055378;28;20074;-73
2021/08/09 00:35:30;;;;;;;1.33;1.23;;;;;;;;;;5055752;28;20033;-73
2021/08/09 00:37:56;;;;;;;6.45;1.55;;;;;;;;;;5055906;28;20025;-73
2021/08/09 00:40:22;;;;;;;2.63;1.90;;;;;;;;;;5055397;28;20110;-73
2021/08/09 00:42:49;;;;;;;1.60;1.50;;;;;;;;;;5055559;28;20406;-73
2021/08/09 00:45:15;;;;;;;2.33;1.63;;;;;;;;;;5055299;28;20053;-73
2021/08/09 00:47:41;;;;;;;5.55;1.60;;;;;;;;;;5055328;28;20029;-73
2021/08/09 00:50:07;;;;;;;4.40;1.70;;;;;;;;;;5054860;28;20039;-73
2021/08/09 00:52:33;;;;;;;1.90;1.58;;;;;;;;;;5055680;28;20029;-73
2021/08/09 00:54:59;;;;;;;4.20;1.73;;;;;;;;;;5054779;28;20076;-73
2021/08/09 00:57:25;;;;;;;2.63;1.48;;;;;;;;;;5055063;28;20082;-73
2021/08/09 00:59:51;;;;;;;1.48;1.38;;;;;;;;;;5055081;28;20475;-73
2021/08/09 01:02:19;;;;;;;1.52;1.35;;;;;;;;;;5054605;28;20371;-73
2021/08/09 01:04:45;;;;;;;3.90;1.60;;;;;;;;;;5055192;28;20049;-74
2021/08/09 01:07:11;;;;;;;2.60;1.58;;;;;;;;;;5055212;28;20082;-74
2021/08/09 01:09:41;;;;;;;2.58;2.05;;;;;;;;;;5055231;28;20033;-76
2021/08/09 01:12:16;;;;;;;1.60;1.50;;;;;;;;;;5054830;28;20017;-76
2021/08/09 01:15:02;;;;;;;2.92;1.40;;;;;;;;;;5054906;28;20163;-76
2021/08/09 01:17:29;;;;;;;3.05;1.60;;;;;;;;;;5040361;28;20050;-73
2021/08/09 01:20:09;;;;;;;2.55;2.30;;;;;;;;;;5054515;28;20029;-73
2021/08/09 01:22:55;;;;;;;1.90;1.67;;;;;;;;;;5054657;28;20032;-73
2021/08/09 01:25:41;;;;;;;2.58;1.73;;;;;;;;;;5039584;28;20029;-74
2021/08/09 01:28:07;;;;;;;4.57;1.58;;;;;;;;;;5040307;28;20017;-73
2021/08/09 01:30:33;;;;;;;1.67;1.58;;;;;;;;;;5053573;28;20037;-73
2021/08/09 01:32:59;;;;;;;1.85;1.75;;;;;;;;;;5054389;28;20107;-73
2021/08/09 01:35:26;;;;;;;2.92;1.70;;;;;;;;;;5054428;28;20021;-73
2021/08/09 01:37:53;;;;;;;1.75;1.65;;;;;;;;;;5054320;28;20152;-76
2021/08/09 01:40:19;;;;;;;7.10;2.10;;;;;;;;;;5054400;28;20086;-73
2021/08/09 01:42:45;;;;;;;2.63;1.55;;;;;;;;;;5054215;28;20025;-73
2021/08/09 01:45:12;;;;;;;3.28;1.70;;;;;;;;;;5054629;28;20032;-73
2021/08/09 01:47:39;;;;;;;1.80;1.48;;;;;;;;;;5053978;28;20543;-73
2021/08/09 01:50:05;;;;;;;1.70;1.60;;;;;;;;;;5054191;28;20466;-73
2021/08/09 01:52:31;;;;;;;4.93;2.03;;;;;;;;;;5053903;28;20087;-73
2021/08/09 01:54:58;;;;;;;2.53;1.88;;;;;;;;;;5054365;28;20140;-73
2021/08/09 01:57:25;;;;;;;1.92;1.70;;;;;;;;;;5053861;28;20028;-73
2021/08/09 01:59:51;;;;;;;2.10;1.90;;;;;;;;;;5053935;28;20029;-73
2021/08/09 02:02:27;;;;;;;1.90;1.42;;;;;;;;;;5053950;28;20017;-73
2021/08/09 02:04:53;;;;;;;3.17;1.55;;;;;;;;;;5054079;28;20017;-73
2021/08/09 02:07:19;;;;;;;6.57;2.05;;;;;;;;;;5053587;28;20033;-73
2021/08/09 02:09:45;;;;;;;1.77;1.67;;;;;;;;;;5053816;28;20378;-73
2021/08/09 02:12:11;;;;;;;1.70;1.52;;;;;;;;;;5053708;28;20151;-73
2021/08/09 02:14:41;;;;;;;1.42;1.33;;;;;;;;;;5054299;28;20467;-73
2021/08/09 02:17:22;;;;;;;2.47;1.88;;;;;;;;;;5054392;28;20075;-73
2021/08/09 02:20:04;;;;;;;4.13;1.60;;;;;;;;;;5054247;28;20025;-76
2021/08/09 02:22:32;;;;;;;2.13;1.73;;;;;;;;;;5053982;28;20028;-76
2021/08/09 02:25:06;;;;;;;2.63;2.15;;;;;;;;;;5054069;28;20108;-73
2021/08/09 02:27:48;;;;;;;2.10;1.90;;;;;;;;;;5053555;28;20498;-73
2021/08/09 02:30:16;;;;;;;1.98;1.65;;;;;;;;;;5053584;28;20097;-76
2021/08/09 02:32:42;;;;;;;2.15;1.70;;;;;;;;;;5053928;28;20017;-76
2021/08/09 02:35:08;;;;;;;2.42;1.80;;;;;;;;;;5053890;28;20025;-76
2021/08/09 02:37:34;;;;;;;1.60;1.45;;;;;;;;;;5053832;28;20055;-76
2021/08/09 02:40:00;;;;;;;3.75;1.75;;;;;;;;;;5053815;28;20108;-77
2021/08/09 02:42:27;;;;;;;5.25;2.08;;;;;;;;;;5057239;28;20382;-77
2021/08/09 02:44:53;;;;;;;2.00;1.60;;;;;;;;;;5057874;28;20028;-77
2021/08/09 02:47:19;;;;;;;1.80;1.70;;;;;;;;;;5058142;28;20162;-77
2021/08/09 02:49:47;;;;;;;2.20;1.75;;;;;;;;;;5058041;28;20037;-77
2021/08/09 02:52:13;;;;;;;1.58;1.48;;;;;;;;;;5057713;28;20025;-76
2021/08/09 02:54:40;;;;;;;2.15;1.60;;;;;;;;;;5058064;28;20067;-76
2021/08/09 02:57:06;;;;;;;2.20;1.60;;;;;;;;;;5057492;28;20477;-75
2021/08/09 02:59:32;;;;;;;1.77;1.67;;;;;;;;;;5057122;28;20441;-76
2021/08/09 03:01:58;;;;;;;2.50;1.45;;;;;;;;;;5058009;28;20112;-75
2021/08/09 03:04:24;;;;;;;2.08;1.48;;;;;;;;;;5057945;28;20051;-76
2021/08/09 03:06:51;;;;;;;4.45;2.03;;;;;;;;;;5057236;28;20068;-75
2021/08/09 03:09:17;;;;;;;1.60;1.50;;;;;;;;;;5057206;28;20086;-77
2021/08/09 03:11:43;;;;;;;1.67;1.15;;;;;;;;;;5057385;28;20493;-76
2021/08/09 03:14:20;;;;;;;1.65;1.52;;;;;;;;;;5057026;28;20115;-74
2021/08/09 03:16:47;;;;;;;2.88;1.40;;;;;;;;;;5057396;28;20371;-75
2021/08/09 03:19:13;;;;;;;1.55;1.42;;;;;;;;;;5057135;28;20028;-75
2021/08/09 03:21:39;;;;;;;2.47;1.88;;;;;;;;;;5057011;28;20021;-76
2021/08/09 03:24:05;;;;;;;2.97;1.58;;;;;;;;;;5057345;28;20124;-76
2021/08/09 03:26:31;;;;;;;5.22;1.75;;;;;;;;;;5056914;28;20044;-76
2021/08/09 03:28:57;;;;;;;2.88;1.98;;;;;;;;;;5056950;28;20112;-76
2021/08/09 03:31:23;;;;;;;1.83;1.52;;;;;;;;;;5057666;28;20028;-76
2021/08/09 03:33:49;;;;;;;1.75;1.38;;;;;;;;;;5056974;28;20374;-76
2021/08/09 03:36:15;;;;;;;1.95;1.50;;;;;;;;;;5057163;28;20033;-76
2021/08/09 03:38:41;;;;;;;1.60;1.50;;;;;;;;;;5056731;28;20094;-76
2021/08/09 03:41:07;;;;;;;1.80;1.70;;;;;;;;;;5056449;28;20025;-76
2021/08/09 03:43:33;;;;;;;3.92;1.67;;;;;;;;;;5056439;28;20029;-76
2021/08/09 03:45:59;;;;;;;4.13;1.70;;;;;;;;;;5056636;28;20039;-76
2021/08/09 03:48:25;;;;;;;2.65;1.90;;;;;;;;;;5056442;28;20032;-76
2021/08/09 03:50:52;;;;;;;1.77;1.50;;;;;;;;;;5056327;28;20037;-76
2021/08/09 03:53:18;;;;;;;3.78;1.88;;;;;;;;;;5055667;28;20458;-76
2021/08/09 03:55:44;;;;;;;2.90;2.25;;;;;;;;;;5056142;28;20053;-76
2021/08/09 03:58:10;;;;;;;2.00;1.30;;;;;;;;;;5056263;28;20029;-76
2021/08/09 04:00:37;;;;;;;3.60;1.90;;;;;;;;;;5056556;28;20029;-76
2021/08/09 04:03:04;;;;;;;3.65;2.03;;;;;;;;;;5056666;28;20055;-76
2021/08/09 04:05:30;;;;;;;2.30;1.70;;;;;;;;;;5056123;28;20036;-73
2021/08/09 04:07:56;;;;;;;2.60;2.05;;;;;;;;;;5056042;28;20025;-76
2021/08/09 04:10:22;;;;;;;2.10;1.90;;;;;;;;;;5055924;28;20033;-76
2021/08/09 04:12:48;;;;;;;2.03;1.80;;;;;;;;;;5055826;28;20025;-76
2021/08/09 04:15:14;;;;;;;1.80;1.70;;;;;;;;;;5056399;28;20032;-76
2021/08/09 04:17:42;;;;;;;4.80;1.92;;;;;;;;;;5056267;28;20021;-76
2021/08/09 04:20:08;;;;;;;2.25;2.05;;;;;;;;;;5056042;28;20471;-76
2021/08/09 04:22:34;;;;;;;2.05;1.85;;;;;;;;;;5056018;28;20031;-76
2021/08/09 04:25:01;;;;;;;3.40;1.90;;;;;;;;;;5055782;28;20487;-76
2021/08/09 04:27:28;;;;;;;1.55;1.45;;;;;;;;;;5055601;28;20422;-76
2021/08/09 04:29:54;;;;;;;3.88;2.15;;;;;;;;;;5055841;28;20033;-76
2021/08/09 04:32:20;;;;;;;1.60;1.50;;;;;;;;;;5055559;28;20022;-76
2021/08/09 04:34:46;;;;;;;1.85;1.65;;;;;;;;;;5055928;28;20180;-76
2021/08/09 04:37:12;;;;;;;1.60;1.50;;;;;;;;;;5055667;28;20032;-74
2021/08/09 04:39:38;;;;;;;4.93;1.65;;;;;;;;;;5055582;28;20033;-74
2021/08/09 04:42:05;;;;;;;1.70;1.48;;;;;;;;;;5055649;28;20031;-74
2021/08/09 04:44:31;;;;;;;2.72;1.80;;;;;;;;;;5055809;28;20108;-75
2021/08/09 04:46:57;;;;;;;2.13;1.42;;;;;;;;;;5055745;28;20377;-74
2021/08/09 04:49:23;;;;;;;1.90;1.70;;;;;;;;;;5055434;28;20061;-76
2021/08/09 04:51:50;;;;;;;4.63;1.73;;;;;;;;;;5055210;28;20017;-75
2021/08/09 04:54:16;;;;;;;3.88;1.55;;;;;;;;;;5055107;28;20090;-76
2021/08/09 04:56:42;;;;;;;1.73;1.63;;;;;;;;;;5054999;28;20029;-74
2021/08/09 04:59:08;;;;;;;1.40;1.25;;;;;;;;;;5055495;28;20395;-74
2021/08/09 05:01:34;;;;;;;1.65;1.55;;;;;;;;;;5054888;28;20422;-76
2021/08/09 05:04:00;;;;;;;4.57;1.55;;;;;;;;;;5055196;28;20521;-76
2021/08/09 05:06:26;;;;;;;2.72;1.75;;;;;;;;;;5054702;28;20025;-76
2021/08/09 05:08:52;;;;;;;39.10;14.45;;;;;;;;;;5054765;28;20087;-76
2021/08/09 05:11:18;;;;;;;41.05;15.98;;;;;;;;;;5054232;28;20029;-76
2021/08/09 05:13:44;;;;;;;29.20;13.15;;;;;;;;;;5063342;28;20489;-76
2021/08/09 05:16:10;;;;;;;27.27;11.93;;;;;;;;;;5051942;28;20037;-75
2021/08/09 05:18:36;;;;;;;36.65;11.35;;;;;;;;;;5053586;28;20021;-75
2021/08/09 05:21:02;;;;;;;36.70;9.15;;;;;;;;;;5054155;28;20109;-78
2021/08/09 05:23:28;;;;;;;18.63;8.13;;;;;;;;;;5052697;28;20876;-77
2021/08/09 05:25:55;;;;;;;18.92;7.70;;;;;;;;;;5052698;28;20021;-77
2021/08/09 05:28:21;;;;;;;16.75;6.70;;;;;;;;;;5052664;28;20458;-77
2021/08/09 05:30:47;;;;;;;20.90;6.68;;;;;;;;;;5053520;28;20533;-78
2021/08/09 05:33:14;;;;;;;11.55;6.00;;;;;;;;;;5051199;28;20399;-78
2021/08/09 05:35:40;;;;;;;13.70;6.07;;;;;;;;;;5052898;28;20086;-78
2021/08/09 05:38:06;;;;;;;21.70;6.60;;;;;;;;;;5054459;28;20028;-77
2021/08/09 05:40:32;;;;;;;13.10;5.47;;;;;;;;;;5053525;28;20035;-76
2021/08/09 05:42:58;;;;;;;12.25;5.35;;;;;;;;;;5054054;28;20021;-77
2021/08/09 05:45:24;;;;;;;13.13;4.95;;;;;;;;;;5053878;28;20025;-78
2021/08/09 05:47:50;;;;;;;12.75;5.93;;;;;;;;;;5053947;28;20032;-76
2021/08/09 05:50:16;;;;;;;22.77;5.95;;;;;;;;;;5051868;28;20045;-75
2021/08/09 05:52:42;;;;;;;12.70;4.85;;;;;;;;;;5052985;28;20489;-74
2021/08/09 05:55:09;;;;;;;12.27;4.30;;;;;;;;;;5056127;28;20512;-75
2021/08/09 05:57:35;;;;;;;14.27;5.15;;;;;;;;;;5072758;28;20490;-75
2021/08/09 06:00:01;;;;;;;7.85;4.03;;;;;;;;;;5072911;28;20420;-77
2021/08/09 06:02:27;;;;;;;7.40;4.15;;;;;;;;;;5072900;28;20017;-74
2021/08/09 06:04:53;;;;;;;11.65;5.22;;;;;;;;;;5068716;28;20037;-75
2021/08/09 06:07:19;;;;;;;8.23;3.85;;;;;;;;;;5053149;28;20029;-76
2021/08/09 06:09:45;;;;;;;6.55;3.65;;;;;;;;;;5052434;28;20037;-75
2021/08/09 06:12:11;;;;;;;7.00;4.00;;;;;;;;;;5051772;28;20025;-75
2021/08/09 06:14:38;;;;;;;8.90;4.28;;;;;;;;;;5069507;28;20378;-75
2021/08/09 06:17:04;;;;;;;9.77;3.80;;;;;;;;;;5058668;28;20029;-75
2021/08/09 06:19:30;;;;;;;8.23;4.00;;;;;;;;;;5059350;28;20040;-74
2021/08/09 06:21:57;;;;;;;7.05;3.85;;;;;;;;;;5059413;28;20249;-75
2021/08/09 06:24:23;;;;;;;5.55;3.22;;;;;;;;;;5059189;28;20021;-76
2021/08/09 06:26:49;;;;;;;4.82;3.15;;;;;;;;;;5058046;28;20082;-76
2021/08/09 06:29:16;;;;;;;6.78;3.75;;;;;;;;;;5058932;28;20060;-77
2021/08/09 06:31:42;;;;;;;10.75;4.20;;;;;;;;;;5063450;28;20272;-76
2021/08/09 06:34:08;;;;;;;7.38;3.90;;;;;;;;;;5061963;28;20025;-75
2021/08/09 06:36:34;;;;;;;6.50;3.58;;;;;;;;;;5073670;28;20029;-75
2021/08/09 06:39:00;;;;;;;10.07;3.85;;;;;;;;;;5079396;28;20150;-75
2021/08/09 06:41:26;;;;;;;13.90;3.92;;;;;;;;;;5079234;28;20027;-77
2021/08/09 06:43:52;;;;;;;12.30;4.40;;;;;;;;;;5079764;28;20035;-76
2021/08/09 06:46:18;;;;;;;7.38;3.67;;;;;;;;;;5076509;28;20086;-77
2021/08/09 06:48:44;;;;;;;6.35;3.15;;;;;;;;;;5079923;28;20511;-76
2021/08/09 06:51:10;;;;;;;10.10;4.63;;;;;;;;;;5079833;28;20025;-79
2021/08/09 06:53:36;;;;;;;8.23;3.53;;;;;;;;;;5081033;28;20028;-78
2021/08/09 06:56:03;;;;;;;15.13;3.78;;;;;;;;;;5064432;28;20510;-77
2021/08/09 06:58:29;;;;;;;6.32;3.25;;;;;;;;;;5061566;28;20116;-78
2021/08/09 07:00:55;;;;;;;14.98;3.53;;;;;;;;;;5074222;28;20028;-82
2021/08/09 07:03:21;;;;;;;12.10;3.97;;;;;;;;;;5081466;28;20090;-80
2021/08/09 07:05:47;;;;;;;10.82;3.50;;;;;;;;;;5076898;28;20377;-78
2021/08/09 07:08:13;;;;;;;5.15;3.38;;;;;;;;;;5079863;28;20465;-76
2021/08/09 07:10:40;;;;;;;5.32;3.92;;;;;;;;;;5079450;28;20448;-78
2021/08/09 07:13:06;;;;;;;5.45;3.10;;;;;;;;;;5079045;28;20028;-78
2021/08/09 07:15:32;;;;;;;3.97;3.00;;;;;;;;;;5079768;28;20167;-79
2021/08/09 07:17:58;;;;;;;3.60;2.72;;;;;;;;;;5079354;28;20017;-80
2021/08/09 07:20:24;;;;;;;3.83;2.42;;;;;;;;;;5078684;28;20027;-78
2021/08/09 07:22:50;;;;;;;4.38;2.60;;;;;;;;;;5078999;28;20347;-80
2021/08/09 07:25:16;;;;;;;6.25;3.13;;;;;;;;;;5078958;28;20024;-79
2021/08/09 07:27:42;;;;;;;11.30;2.75;;;;;;;;;;5076067;28;20025;-79
2021/08/09 07:30:10;;;;;;;5.47;2.78;;;;;;;;;;5075880;28;20036;-80
2021/08/09 07:32:36;;;;;;;3.38;2.80;;;;;;;;;;5075907;28;20389;-78
2021/08/09 07:35:02;;;;;;;3.13;2.60;;;;;;;;;;5075606;28;20444;-80
2021/08/09 07:37:28;;;;;;;8.18;2.72;;;;;;;;;;5075550;28;20087;-80
2021/08/09 07:39:54;;;;;;;2.90;2.55;;;;;;;;;;5075582;28;20028;-78
2021/08/09 07:42:20;;;;;;;7.20;2.85;;;;;;;;;;5075116;28;20024;-79
2021/08/09 07:44:46;;;;;;;5.10;2.63;;;;;;;;;;5076638;28;20520;-78
2021/08/09 07:47:12;;;;;;;3.00;2.60;;;;;;;;;;5075535;28;20047;-79
2021/08/09 07:49:38;;;;;;;8.25;3.13;;;;;;;;;;5075321;28;20032;-82
2021/08/09 07:52:04;;;;;;;3.80;2.47;;;;;;;;;;5075330;28;20024;-82
2021/08/09 07:54:30;;;;;;;3.70;3.40;;;;;;;;;;5074759;28;20538;-82
2021/08/09 07:57:01;;;;;;;3.13;2.47;;;;;;;;;;5075448;28;20025;-80
2021/08/09 07:59:27;;;;;;;7.95;3.97;;;;;;;;;;5068801;28;20378;-80
2021/08/09 08:01:53;;;;;;;4.78;3.17;;;;;;;;;;5077851;28;20024;-83
2021/08/09 08:04:20;;;;;;;12.20;3.15;;;;;;;;;;5077661;28;20033;-82
2021/08/09 08:06:46;;;;;;;4.75;2.80;;;;;;;;;;5066550;28;20082;-78
2021/08/09 08:09:12;;;;;;;5.80;2.78;;;;;;;;;;5056042;28;20434;-88
2021/08/09 08:11:38;;;;;;;3.33;2.58;;;;;;;;;;5058069;28;20079;-80
2021/08/09 08:14:04;;;;;;;3.35;2.85;;;;;;;;;;5058661;28;20474;-89
2021/08/09 08:16:30;;;;;;;3.00;2.50;;;;;;;;;;5064725;28;20028;-84
2021/08/09 08:18:56;;;;;;;8.15;2.42;;;;;;;;;;5074126;28;20159;-79
2021/08/09 08:21:22;;;;;;;2.83;2.63;;;;;;;;;;5055565;28;20025;-77
2021/08/09 08:23:48;;;;;;;5.85;2.97;;;;;;;;;;5055971;28;20029;-78
2021/08/09 08:26:14;;;;;;;4.63;2.63;;;;;;;;;;5053918;28;20055;-78
2021/08/09 08:28:40;;;;;;;5.50;2.72;;;;;;;;;;5055278;28;20025;-76
2021/08/09 08:31:07;;;;;;;6.15;3.22;;;;;;;;;;5054510;28;20088;-76
2021/08/09 08:33:33;;;;;;;3.92;3.05;;;;;;;;;;5054367;28;20040;-77
2021/08/09 08:35:59;;;;;;;3.58;2.72;;;;;;;;;;5054505;28;20028;-77
2021/08/09 08:38:25;;;;;;;3.50;2.67;;;;;;;;;;5053762;28;20033;-77
2021/08/09 08:40:52;;;;;;;2.60;2.40;;;;;;;;;;5054403;28;20031;-75
2021/08/09 08:43:19;;;;;;;6.13;2.72;;;;;;;;;;5055152;28;20082;-75
2021/08/09 08:45:45;;;;;;;3.97;2.63;;;;;;;;;;5053920;28;20025;-75
2021/08/09 08:48:11;;;;;;;116.90;10.05;;;;;;;;;;5054442;28;20024;-76
2021/08/09 08:50:37;;;;;;;138.30;9.73;;;;;;;;;;5054474;28;20029;-77
2021/08/09 08:53:03;;;;;;;22.50;4.78;;;;;;;;;;5054710;28;20044;-79
2021/08/09 08:55:29;;;;;;;31.30;4.53;;;;;;;;;;5055265;28;20171;-79
2021/08/09 08:57:55;;;;;;;17.02;4.20;;;;;;;;;;5054321;28;20031;-76
2021/08/09 09:00:21;;;;;;;25.67;3.80;;;;;;;;;;5053655;28;20443;-78
2021/08/09 09:02:47;;;;;;;16.90;4.10;;;;;;;;;;5068813;28;20032;-78
2021/08/09 09:05:15;;;;;;;9.38;4.03;;;;;;;;;;5072071;28;20021;-78
2021/08/09 09:07:42;;;;;;;6.78;3.85;;;;;;;;;;5073680;28;20032;-87
2021/08/09 09:10:21;;;;;;;8.35;4.05;;;;;;;;;;5074645;28;20119;-79
2021/08/09 09:13:07;;;;;;;8.77;4.70;;;;;;;;;;5074624;28;20028;-80
2021/08/09 09:15:52;;;;;;;13.32;4.50;;;;;;;;;;5060077;28;20343;-83
2021/08/09 09:18:18;;;;;;;7.40;3.22;;;;;;;;;;5074492;28;20094;-83
2021/08/09 09:20:44;;;;;;;3.50;3.20;;;;;;;;;;5075365;28;20039;-84
2021/08/09 09:23:12;;;;;;;4.50;2.85;;;;;;;;;;5074315;28;20024;-85
2021/08/09 09:25:38;;;;;;;8.57;3.47;;;;;;;;;;5074310;28;20411;-83
2021/08/09 09:28:24;;;;;;;9.18;3.80;;;;;;;;;;5074368;28;20027;-88
2021/08/09 09:30:51;;;;;;;14.73;5.47;;;;;;;;;;5060522;28;20085;-85
2021/08/09 09:33:17;;;;;;;10.35;5.38;;;;;;;;;;5074769;28;20025;-85
2021/08/09 09:35:43;;;;;;;9.15;5.15;;;;;;;;;;5074407;28;20029;-84
2021/08/09 09:38:09;;;;;;;5.88;4.60;;;;;;;;;;5074483;28;20519;-82
2021/08/09 09:40:38;;;;;;;8.98;5.03;;;;;;;;;;5073967;28;20366;-82
2021/08/09 09:43:14;;;;;;;4.82;3.83;;;;;;;;;;5073899;28;20035;-83
2021/08/09 09:45:40;;;;;;;5.45;3.97;;;;;;;;;;5074623;28;20033;-81
2021/08/09 09:48:09;;;;;;;4.88;2.90;;;;;;;;;;5073896;28;20024;-85
2021/08/09 09:50:37;;;;;;;8.90;4.75;;;;;;;;;;5072438;28;20032;-84
2021/08/09 09:53:22;;;;;;;54.38;16.75;;;;;;;;;;5072694;28;20051;-83
2021/08/09 09:55:49;;;;;;;73.90;22.38;;;;;;;;;;5070704;28;20447;-85
2021/08/09 09:58:16;;;;;;;52.30;15.70;;;;;;;;;;5072531;28;20021;-88
2021/08/09 10:00:42;;;;;;;31.88;10.75;;;;;;;;;;5072330;28;20099;-86
2021/08/09 10:03:09;;;;;;;32.30;9.43;;;;;;;;;;5072415;28;20108;-88
2021/08/09 10:05:35;;;;;;;28.67;10.68;;;;;;;;;;5072510;28;20047;-82
2021/08/09 10:08:02;;;;;;;21.33;9.40;;;;;;;;;;5072111;28;20021;-80
2021/08/09 10:10:28;;;;;;;24.92;9.32;;;;;;;;;;5072537;28;20382;-83
2021/08/09 10:12:54;;;;;;;22.85;8.63;;;;;;;;;;5074149;28;20020;-83
2021/08/09 10:15:20;;;;;;;27.63;9.05;;;;;;;;;;5073375;28;20033;-85
2021/08/09 10:17:47;;;;;;;24.23;8.77;;;;;;;;;;5072264;28;20366;-85
2021/08/09 10:20:13;;;;;;;13.05;7.70;;;;;;;;;;5072844;28;20040;-82
2021/08/09 10:22:39;;;;;;;19.05;7.53;;;;;;;;;;5073653;28;20036;-83
2021/08/09 10:25:06;;;;;;;10.50;5.72;;;;;;;;;;5073501;28;20474;-82
2021/08/09 10:27:51;;;;;;;8.30;5.68;;;;;;;;;;5074225;28;20021;-83
2021/08/09 10:30:18;;;;;;;14.07;6.10;;;;;;;;;;5072431;28;20438;-84
2021/08/09 10:32:45;;;;;;;12.25;5.10;;;;;;;;;;5072163;28;20044;-85
2021/08/09 10:35:31;;;;;;;11.07;4.28;;;;;;;;;;5071492;28;20060;-84
2021/08/09 10:38:18;;;;;;;8.88;5.47;;;;;;;;;;5049955;28;20025;-82
2021/08/09 10:40:46;;;;;;;7.43;4.88;;;;;;;;;;5049931;28;20029;-78
2021/08/09 10:43:12;;;;;;;56.95;11.15;;;;;;;;;;5063323;28;20067;-80
2021/08/09 10:45:40;;;;;;;11.55;5.78;;;;;;;;;;5059909;28;20463;-81
2021/08/09 10:48:06;;;;;;;7.07;4.22;;;;;;;;;;5062934;28;20027;-79
2021/08/09 10:50:46;;;;;;;6.20;3.58;;;;;;;;;;5061070;28;20033;-77
2021/08/09 10:53:32;;;;;;;13.55;10.77;;;;;;;;;;5061147;28;20032;-77
2021/08/09 10:55:58;;;;;;;15.18;4.53;;;;;;;;;;5051393;28;20098;-79
2021/08/09 10:58:45;;;;;;;10.65;4.10;;;;;;;;;;5061083;28;20016;-78
2021/08/09 11:01:12;;;;;;;5.53;3.60;;;;;;;;;;5049307;28;20031;-77
2021/08/09 11:04:00;;;;;;;10.70;6.20;;;;;;;;;;5066164;28;20098;-76
2021/08/09 11:06:53;;;;;;;7.15;4.43;;;;;;;;;;5055264;28;20484;-76
2021/08/09 11:09:41;;;;;;;6.78;5.00;;;;;;;;;;5053890;28;20067;-75
2021/08/09 11:12:17;;;;;;;9.10;5.40;;;;;;;;;;5049435;28;20405;-75
2021/08/09 11:15:04;;;;;;;6.75;4.00;;;;;;;;;;5056971;28;20032;-75
2021/08/09 11:17:32;;;;;;;10.48;9.05;;;;;;;;;;5042633;28;20090;-75
2021/08/09 11:20:18;;;;;;;5.75;3.60;;;;;;;;;;5056784;28;20099;-75
2021/08/09 11:22:45;;;;;;;11.18;7.47;;;;;;;;;;5046812;28;20025;-76
2021/08/09 11:25:31;;;;;;;7.72;6.70;;;;;;;;;;5056006;28;20478;-76
2021/08/09 11:28:00;;;;;;;7.47;4.18;;;;;;;;;;5040496;28;20367;-74
2021/08/09 11:30:34;;;;;;;10.80;9.57;;;;;;;;;;5055545;28;20474;-75
2021/08/09 11:33:00;;;;;;;14.77;13.35;;;;;;;;;;5056764;28;20028;-75
2021/08/09 11:35:26;;;;;;;5.82;5.13;;;;;;;;;;5056298;28;20111;-76
2021/08/09 11:37:56;;;;;;;10.88;7.72;;;;;;;;;;5056185;28;20490;-79
2021/08/09 11:40:42;;;;;;;19.77;18.00;;;;;;;;;;5056299;28;20032;-76
2021/08/09 11:43:08;;;;;;;21.08;5.57;;;;;;;;;;5041904;28;20032;-74
2021/08/09 11:45:35;;;;;;;4.63;4.07;;;;;;;;;;5062999;28;20024;-78
2021/08/09 11:48:01;;;;;;;9.57;4.70;;;;;;;;;;5076073;28;20044;-77
2021/08/09 11:50:27;;;;;;;7.13;4.45;;;;;;;;;;5077488;28;20063;-78
2021/08/09 11:53:13;;;;;;;15.75;11.85;;;;;;;;;;5078227;28;20024;-76
2021/08/09 11:55:39;;;;;;;12.25;11.02;;;;;;;;;;5061530;28;20048;-77
2021/08/09 11:58:05;;;;;;;8.73;3.95;;;;;;;;;;5076537;28;20032;-76
2021/08/09 12:00:48;;;;;;;6.93;4.00;;;;;;;;;;5076993;28;20024;-78
2021/08/09 12:03:16;;;;;;;8.23;3.95;;;;;;;;;;5077994;28;20028;-84
2021/08/09 12:05:42;;;;;;;7.80;4.25;;;;;;;;;;5076098;28;20028;-78
2021/08/09 12:08:08;;;;;;;8.35;4.72;;;;;;;;;;5075874;28;20470;-79
2021/08/09 12:10:35;;;;;;;10.82;5.50;;;;;;;;;;5076789;28;20036;-79
2021/08/09 12:13:03;;;;;;;8.55;3.78;;;;;;;;;;5076348;28;20074;-76
2021/08/09 12:15:29;;;;;;;12.88;10.07;;;;;;;;;;5075095;28;20029;-76
2021/08/09 12:18:03;;;;;;;4.22;3.63;;;;;;;;;;5075688;28;20028;-75
2021/08/09 12:20:29;;;;;;;6.50;3.65;;;;;;;;;;5075795;28;20378;-76
2021/08/09 12:22:55;;;;;;;5.10;3.92;;;;;;;;;;5076125;28;20070;-76
2021/08/09 12:25:22;;;;;;;11.10;4.53;;;;;;;;;;5075266;28;20463;-76
2021/08/09 12:28:06;;;;;;;8.25;3.83;;;;;;;;;;5076259;28;20024;-77
2021/08/09 12:30:50;;;;;;;7.25;3.55;;;;;;;;;;5075927;28;20068;-76
2021/08/09 12:33:16;;;;;;;4.65;3.80;;;;;;;;;;5076342;28;20035;-76
2021/08/09 12:35:42;;;;;;;5.47;3.88;;;;;;;;;;5075924;28;20021;-76
2021/08/09 12:38:09;;;;;;;4.13;3.33;;;;;;;;;;5075612;28;20527;-76
2021/08/09 12:40:52;;;;;;;4.13;3.42;;;;;;;;;;5075973;28;20360;-76
2021/08/09 12:43:19;;;;;;;5.50;3.63;;;;;;;;;;5076370;28;20024;-76
2021/08/09 12:45:45;;;;;;;4.47;3.50;;;;;;;;;;5075781;28;20105;-76
2021/08/09 12:48:12;;;;;;;6.75;3.90;;;;;;;;;;5075887;28;20025;-76
2021/08/09 12:50:38;;;;;;;5.82;2.95;;;;;;;;;;5075493;28;20105;-76
2021/08/09 12:53:04;;;;;;;6.15;3.72;;;;;;;;;;5075729;28;20021;-76
2021/08/09 12:55:30;;;;;;;4.60;3.67;;;;;;;;;;5075200;28;20048;-76
2021/08/09 12:57:56;;;;;;;4.05;3.00;;;;;;;;;;5075817;28;20505;-76
2021/08/09 13:00:23;;;;;;;10.25;3.20;;;;;;;;;;5075285;28;20051;-76
2021/08/09 13:02:49;;;;;;;5.75;3.63;;;;;;;;;;5075563;28;20039;-77
2021/08/09 13:05:15;;;;;;;4.15;3.67;;;;;;;;;;5075858;28;20056;-76
2021/08/09 13:07:41;;;;;;;5.05;3.92;;;;;;;;;;5075429;28;20470;-81
2021/08/09 13:10:07;;;;;;;4.65;3.90;;;;;;;;;;5074720;28;20035;-80
2021/08/09 13:12:33;;;;;;;4.30;3.90;;;;;;;;;;5075903;28;20486;-78
2021/08/09 13:14:59;;;;;;;6.25;3.88;;;;;;;;;;5075363;28;20028;-79
2021/08/09 13:17:26;;;;;;;4.97;3.50;;;;;;;;;;5075019;28;20024;-78
2021/08/09 13:19:53;;;;;;;7.38;3.58;;;;;;;;;;5075045;28;20458;-78
2021/08/09 13:22:19;;;;;;;4.47;3.03;;;;;;;;;;5075243;28;20033;-80
2021/08/09 13:24:45;;;;;;;4.47;4.00;;;;;;;;;;5074561;28;20029;-78
2021/08/09 13:27:11;;;;;;;4.88;3.35;;;;;;;;;;5074693;28;20096;-79
2021/08/09 13:29:37;;;;;;;4.65;3.45;;;;;;;;;;5074701;28;20483;-78
2021/08/09 13:32:04;;;;;;;5.35;3.42;;;;;;;;;;5075089;28;20574;-78
2021/08/09 13:34:30;;;;;;;3.92;3.20;;;;;;;;;;5074938;28;20024;-79
2021/08/09 13:36:56;;;;;;;3.22;2.92;;;;;;;;;;5074961;28;20042;-78
2021/08/09 13:39:22;;;;;;;3.70;3.17;;;;;;;;;;5074445;28;20028;-78
2021/08/09 13:41:48;;;;;;;4.90;3.13;;;;;;;;;;5075277;28;20024;-79
2021/08/09 13:44:14;;;;;;;5.97;2.80;;;;;;;;;;5075192;28;20045;-78
2021/08/09 13:46:40;;;;;;;3.97;3.00;;;;;;;;;;5074884;28;20020;-78
2021/08/09 13:49:06;;;;;;;4.32;3.15;;;;;;;;;;5074700;28;20497;-78
2021/08/09 13:51:32;;;;;;;4.60;3.05;;;;;;;;;;5074501;28;20115;-81
2021/08/09 13:53:58;;;;;;;4.30;3.17;;;;;;;;;;5074392;28;20029;-78
2021/08/09 13:56:25;;;;;;;3.05;2.67;;;;;;;;;;5075126;28;20016;-78
2021/08/09 13:58:51;;;;;;;4.43;3.10;;;;;;;;;;5074546;28;20106;-79
2021/08/09 14:01:17;;;;;;;4.45;2.85;;;;;;;;;;5074690;28;20024;-81
2021/08/09 14:03:43;;;;;;;2.97;2.63;;;;;;;;;;5074308;28;20436;-78
2021/08/09 14:06:09;;;;;;;3.63;2.78;;;;;;;;;;5074634;28;20031;-78
2021/08/09 14:08:36;;;;;;;4.88;3.17;;;;;;;;;;5074113;28;20469;-78
2021/08/09 14:11:03;;;;;;;4.07;2.33;;;;;;;;;;5075039;28;20036;-80
2021/08/09 14:13:29;;;;;;;3.60;2.95;;;;;;;;;;5075112;28;20032;-78
2021/08/09 14:15:56;;;;;;;4.25;3.30;;;;;;;;;;5074475;28;20428;-78
2021/08/09 14:18:22;;;;;;;5.63;3.00;;;;;;;;;;5074651;28;20021;-78
2021/08/09 14:20:49;;;;;;;3.38;2.92;;;;;;;;;;5074128;28;20035;-78
2021/08/09 14:23:15;;;;;;;4.28;3.13;;;;;;;;;;5074232;28;20025;-78
2021/08/09 14:25:41;;;;;;;5.57;3.25;;;;;;;;;;5074294;28;20025;-79
2021/08/09 14:28:07;;;;;;;5.25;2.67;;;;;;;;;;5074087;28;20028;-79
2021/08/09 14:30:33;;;;;;;4.35;3.17;;;;;;;;;;5074119;28;20041;-78
2021/08/09 14:33:00;;;;;;;3.95;2.78;;;;;;;;;;5073788;28;20028;-78
2021/08/09 14:35:26;;;;;;;3.42;2.63;;;;;;;;;;5074251;28;20017;-79
2021/08/09 14:37:52;;;;;;;3.53;2.80;;;;;;;;;;5076423;28;20025;-79
2021/08/09 14:40:18;;;;;;;2.85;2.30;;;;;;;;;;5078817;28;20025;-76
2021/08/09 14:42:44;;;;;;;3.03;2.80;;;;;;;;;;5078338;28;20024;-77